Time;durP1;ratioP1;P1;durP2;ratioP2;P2;SDS_P1;SDS_P2;PMS_P1;PMS_P2;Temp;Humidity;BMP_temperature;BMP_pressure;BME280_temperature;BME280_humidity;BME280_pressure;Samples;Min_cycle;Max_cycle;Signal;HPM_P1;HPM_P2
2020/12/03 00:00:26;;;;;;;30.58;12.98;;;;;;;1.47;74.06;99480.25;3837829;23;20017;-79
2020/12/03 00:02:26;;;;;;;32.88;14.73;;;;;;;1.37;74.44;99476.53;3836963;22;20021;-80
2020/12/03 00:04:23;;;;;;;28.88;13.98;;;;;;;1.38;74.34;99476.44;3838469;23;20075;-80
2020/12/03 00:06:01;;;;;;;22.50;10.57;;;;;;;1.50;73.87;99466.88;3836725;22;20016;-80
2020/12/03 00:07:32;;;;;;;25.77;12.90;;;;;;;1.56;73.74;99481.44;3838609;23;20043;-80
2020/12/03 00:09:11;;;;;;;;;;;;;;;1.53;74.31;99468.44;3836242;22;20017;-80
2020/12/03 00:10:46;;;;;;;26.35;11.73;;;;;;;1.60;73.72;99464.50;3836429;22;19943;-79
2020/12/03 00:12:20;;;;;;;26.25;11.80;;;;;;;1.66;73.51;99460.56;3839317;23;20428;-79
2020/12/03 00:13:51;;;;;;;27.98;12.52;;;;;;;1.71;73.37;99459.31;3835653;22;20028;-82
2020/12/03 00:15:22;;;;;;;26.10;12.10;;;;;;;1.80;73.04;99462.28;3838868;23;20021;-82
2020/12/03 00:16:53;;;;;;;;;;;;;;;1.74;73.12;99462.72;3837286;22;20044;-81
2020/12/03 00:18:24;;;;;;;23.67;11.02;;;;;;;1.81;72.90;99459.56;3838421;23;19916;-80
2020/12/03 00:19:57;;;;;;;22.48;9.80;;;;;;;1.86;72.74;99451.34;3837524;22;20020;-80
2020/12/03 00:21:34;;;;;;;21.98;10.48;;;;;;;1.90;72.19;99455.44;3838740;23;20025;-80
2020/12/03 00:23:06;;;;;;;19.85;9.27;;;;;;;1.95;72.23;99448.09;3836148;22;20044;-79
2020/12/03 00:24:37;;;;;;;25.35;10.95;;;;;;;1.96;72.28;99452.41;3839009;23;20029;-80
2020/12/03 00:26:09;;;;;;;23.02;9.95;;;;;;;1.96;72.28;99447.16;3839647;22;20021;-80
2020/12/03 00:27:48;;;;;;;26.05;11.77;;;;;;;1.98;72.05;99442.63;3849091;23;20059;-80
2020/12/03 00:29:21;;;;;;;22.80;9.90;;;;;;;2.01;72.01;99449.47;3846359;22;20052;-81
2020/12/03 00:31:00;;;;;;;28.75;13.27;;;;;;;1.95;71.91;99445.47;3851557;23;20025;-80
2020/12/03 00:32:34;;;;;;;23.52;11.88;;;;;;;2.02;71.94;99452.00;3846956;22;20091;-79
2020/12/03 00:34:19;;;;;;;26.70;11.68;;;;;;;2.03;71.79;99448.41;3850191;23;20016;-80
2020/12/03 00:35:54;;;;;;;22.77;10.23;;;;;;;2.09;71.53;99441.88;3847616;22;20052;-79
2020/12/03 00:37:26;;;;;;;26.65;11.40;;;;;;;2.14;71.40;99444.19;3844415;23;20021;-79
2020/12/03 00:38:58;;;;;;;27.73;13.60;;;;;;;2.07;71.32;99442.94;3837208;22;20021;-79
2020/12/03 00:40:29;;;;;;;31.83;14.48;;;;;;;1.88;72.11;99433.66;3839266;23;20029;-79
2020/12/03 00:42:00;;;;;;;32.80;15.75;;;;;;;1.82;72.59;99444.59;3836232;22;20028;-80
2020/12/03 00:43:31;;;;;;;;;;;;;;;1.66;73.40;99437.72;3839325;23;20017;-79
2020/12/03 00:45:06;;;;;;;30.20;13.70;;;;;;;1.74;73.22;99439.00;3836223;22;19916;-79
2020/12/03 00:46:37;;;;;;;27.92;13.32;;;;;;;1.76;73.07;99434.47;3836686;22;20416;-79
2020/12/03 00:48:09;;;;;;;25.60;12.90;;;;;;;1.73;73.18;99418.84;3838723;23;20088;-79
2020/12/03 00:49:40;;;;;;;29.95;12.93;;;;;;;1.73;73.35;99422.34;3836482;22;20025;-79
2020/12/03 00:51:12;;;;;;;;;;;;;;;1.66;73.71;99423.69;3839145;23;20021;-79
2020/12/03 00:52:45;;;;;;;29.85;12.73;;;;;;;1.74;73.41;99416.13;3836228;22;19916;-79
2020/12/03 00:54:17;;;;;;;31.10;14.35;;;;;;;1.75;73.37;99427.50;3837400;23;20112;-79
2020/12/03 00:55:49;;;;;;;31.63;13.52;;;;;;;1.72;73.22;99433.84;3836084;22;20028;-80
2020/12/03 00:57:20;;;;;;;33.85;16.02;;;;;;;1.66;73.49;99416.63;3838286;23;20032;-79
2020/12/03 00:58:51;;;;;;;33.80;15.77;;;;;;;1.63;73.74;99422.09;3834699;22;20044;-80
2020/12/03 01:00:22;;;;;;;;;;;;;;;1.52;74.27;99421.97;3839843;23;20024;-80
2020/12/03 01:01:54;;;;;;;26.60;12.38;;;;;;;1.56;74.12;99420.84;3835910;22;19916;-80
2020/12/03 01:03:25;;;;;;;32.17;14.27;;;;;;;1.59;74.02;99415.38;3837758;23;20025;-80
2020/12/03 01:04:57;;;;;;;31.00;13.20;;;;;;;1.61;74.02;99408.19;3835999;22;20020;-80
2020/12/03 01:06:29;;;;;;;35.20;15.57;;;;;;;1.59;74.01;99412.75;3839326;23;20021;-80
2020/12/03 01:08:04;;;;;;;34.65;14.48;;;;;;;1.58;73.90;99402.28;3844260;22;20025;-81
2020/12/03 01:09:36;;;;;;;30.60;14.45;;;;;;;1.58;74.07;99407.56;3852642;23;20032;-80
2020/12/03 01:11:09;;;;;;;33.85;16.35;;;;;;;1.55;74.29;99411.25;3841846;22;20021;-80
2020/12/03 01:12:39;;;;;;;31.17;16.02;;;;;;;1.52;74.40;99414.06;3838650;23;20040;-80
2020/12/03 01:14:10;;;;;;;;;;;;;;;1.36;74.86;99411.63;3835899;22;20017;-80
2020/12/03 01:15:42;;;;;;;35.03;15.45;;;;;;;1.39;74.92;99414.91;3837883;23;19916;-80
2020/12/03 01:17:15;;;;;;;35.50;15.50;;;;;;;1.40;74.58;99408.69;3835927;22;20017;-80
2020/12/03 01:18:47;;;;;;;33.20;14.38;;;;;;;1.35;75.28;99409.94;3838135;23;20096;-80
2020/12/03 01:20:22;;;;;;;31.85;14.65;;;;;;;1.38;75.02;99415.84;3835349;22;20029;-80
2020/12/03 01:21:53;;;;;;;38.90;15.85;;;;;;;1.36;75.47;99401.94;3838240;23;20079;-80
2020/12/03 01:23:24;;;;;;;;;;;;;;;1.27;75.62;99402.53;3835541;22;20029;-79
2020/12/03 01:27:45;;;;;;;31.52;13.75;;;;;;;1.33;75.89;99396.84;3831547;22;20036;-80
2020/12/03 01:29:19;;;;;;;35.17;14.70;;;;;;;1.39;75.57;99392.97;3835143;22;20084;-80
2020/12/03 01:30:50;;;;;;;33.28;13.55;;;;;;;1.48;75.05;99399.44;3837167;23;20071;-80
2020/12/03 01:32:21;;;;;;;32.17;14.15;;;;;;;1.53;75.24;99395.53;3835462;22;20021;-80
2020/12/03 01:33:53;;;;;;;32.00;15.20;;;;;;;1.56;75.17;99387.41;3836774;23;20019;-80
2020/12/03 01:35:24;;;;;;;30.55;14.65;;;;;;;1.57;75.13;99393.53;3835829;22;20025;-80
2020/12/03 01:36:55;;;;;;;29.00;13.30;;;;;;;1.58;75.31;99384.69;3838244;23;20017;-80
2020/12/03 01:38:27;;;;;;;;;;;;;;;1.43;75.97;99372.53;3835018;22;20483;-80
2020/12/03 01:39:58;;;;;;;28.98;13.95;;;;;;;1.51;75.54;99373.72;3838169;23;19916;-79
2020/12/03 01:41:30;;;;;;;33.55;14.93;;;;;;;1.52;75.40;99369.28;3835589;22;20029;-80
2020/12/03 01:43:01;;;;;;;30.45;12.95;;;;;;;1.60;75.61;99369.63;3837488;23;20029;-80
2020/12/03 01:44:42;;;;;;;29.55;14.30;;;;;;;1.65;75.49;99364.06;3835718;22;20021;-80
2020/12/03 01:46:15;;;;;;;28.10;13.55;;;;;;;1.71;75.12;99363.63;3838335;23;20473;-80
2020/12/03 01:47:49;;;;;;;26.35;11.73;;;;;;;1.76;75.11;99358.03;3836254;22;20555;-80
2020/12/03 01:49:30;;;;;;;26.38;10.95;;;;;;;1.78;74.73;99358.78;3837749;23;20025;-80
2020/12/03 01:51:04;;;;;;;27.75;13.05;;;;;;;1.75;74.76;99351.06;3836297;22;20025;-80
2020/12/03 01:52:36;;;;;;;29.35;13.82;;;;;;;1.70;74.83;99357.50;3836779;22;20091;-80
2020/12/03 01:54:11;;;;;;;30.10;13.77;;;;;;;1.74;74.55;99367.84;3838810;23;20047;-79
2020/12/03 01:55:42;;;;;;;31.38;14.93;;;;;;;1.75;74.52;99361.63;3837039;22;20425;-80
2020/12/03 01:57:28;;;;;;;;;;;;;;;1.65;74.31;99351.72;3840237;23;20024;-80
2020/12/03 01:59:01;;;;;;;24.50;12.18;;;;;;;1.70;74.36;99346.13;3836179;22;19991;-80
2020/12/03 02:00:33;;;;;;;27.63;12.93;;;;;;;1.76;74.04;99344.84;3839733;23;20029;-80
2020/12/03 02:02:05;;;;;;;24.60;11.93;;;;;;;1.82;73.98;99334.75;3836489;22;20013;-80
2020/12/03 02:03:45;;;;;;;24.77;12.43;;;;;;;1.85;73.65;99329.25;3837843;23;20029;-80
2020/12/03 02:05:20;;;;;;;24.00;10.88;;;;;;;1.91;73.77;99327.97;3836965;22;20526;-80
2020/12/03 02:06:58;;;;;;;24.75;11.13;;;;;;;1.93;73.55;99325.25;3839314;23;20021;-80
2020/12/03 02:08:29;;;;;;;23.48;10.77;;;;;;;1.92;73.60;99327.03;3836364;23;20112;-80
2020/12/03 02:10:01;;;;;;;20.40;9.00;;;;;;;1.97;73.21;99332.84;3839510;23;20048;-80
2020/12/03 02:11:33;;;;;;;24.10;11.73;;;;;;;1.98;73.24;99328.41;3837123;22;20025;-80
2020/12/03 02:13:04;;;;;;;24.48;12.32;;;;;;;1.98;73.53;99320.47;3840785;23;20032;-79
2020/12/03 02:14:36;;;;;;;30.67;12.65;;;;;;;2.01;73.25;99313.19;3836812;22;20358;-80
2020/12/03 02:16:06;;;;;;;22.02;12.35;;;;;;;1.99;73.26;99316.91;3840715;23;20028;-79
2020/12/03 02:17:39;;;;;;;;;;;;;;;1.86;73.13;99319.56;3838700;22;20365;-80
2020/12/03 02:19:52;;;;;;;31.55;14.32;;;;;;;1.93;72.85;99315.53;3840858;23;19916;-80
2020/12/03 02:21:24;;;;;;;23.65;10.95;;;;;;;1.98;73.10;99321.34;3839022;23;20024;-80
2020/12/03 02:22:55;;;;;;;25.77;11.77;;;;;;;2.01;72.90;99318.47;3838075;22;20079;-79
2020/12/03 02:24:27;;;;;;;;;;;;;;;1.89;72.74;99316.69;3842375;23;20025;-80
2020/12/03 02:25:58;;;;;;;19.40;8.90;;;;;;;1.97;72.85;99316.16;3838616;22;19987;-80
2020/12/03 02:27:30;;;;;;;26.95;13.20;;;;;;;1.99;72.75;99309.00;3842340;23;20040;-80
2020/12/03 02:29:03;;;;;;;29.25;12.60;;;;;;;1.94;72.83;99306.69;3839778;22;20025;-79
2020/12/03 02:30:35;;;;;;;28.15;12.82;;;;;;;1.95;72.58;99312.78;3841273;23;20017;-80
2020/12/03 02:32:07;;;;;;;29.15;14.10;;;;;;;1.94;72.92;99306.69;3839834;22;20024;-80
2020/12/03 02:33:39;;;;;;;25.75;11.13;;;;;;;1.96;72.57;99299.50;3839195;23;20056;-79
2020/12/03 02:35:14;;;;;;;26.77;12.55;;;;;;;1.94;72.84;99305.81;3837368;22;20028;-80
2020/12/03 02:36:50;;;;;;;33.65;16.25;;;;;;;1.85;73.21;99299.41;3840100;23;20025;-81
2020/12/03 02:38:23;;;;;;;27.98;12.10;;;;;;;1.91;72.91;99301.59;3838651;22;20083;-80
2020/12/03 02:39:54;;;;;;;28.52;14.30;;;;;;;1.89;73.04;99298.22;3840902;23;20024;-81
2020/12/03 02:41:34;;;;;;;;;;;;;;;1.82;73.08;99302.25;3841347;22;20021;-80
2020/12/03 02:43:05;;;;;;;29.48;14.05;;;;;;;1.87;73.18;99297.53;3841784;23;19971;-79
2020/12/03 02:44:39;;;;;;;28.08;12.98;;;;;;;1.93;73.09;99299.72;3842735;22;20358;-80
2020/12/03 02:46:10;;;;;;;35.45;17.10;;;;;;;1.79;73.29;99302.50;3847810;23;20025;-80
2020/12/03 02:47:42;;;;;;;32.20;14.20;;;;;;;1.84;73.31;99292.44;3845556;22;20049;-81
2020/12/03 02:49:13;;;;;;;32.65;15.70;;;;;;;1.82;73.33;99296.97;3848542;23;20025;-80
2020/12/03 02:50:45;;;;;;;30.65;13.80;;;;;;;1.82;73.37;99294.34;3846814;22;20052;-80
2020/12/03 02:52:19;;;;;;;34.38;16.92;;;;;;;1.80;73.40;99290.97;3845351;23;20021;-80
2020/12/03 02:53:50;;;;;;;30.40;14.55;;;;;;;1.80;73.65;99304.16;3837923;22;20025;-80
2020/12/03 02:55:22;;;;;;;32.10;15.35;;;;;;;1.76;73.68;99300.88;3841194;23;20083;-80
2020/12/03 02:56:52;;;;;;;26.02;14.20;;;;;;;1.79;73.50;99291.94;3838100;22;20048;-80
2020/12/03 02:58:23;;;;;;;;;;;;;;;1.58;73.55;99294.25;3839629;23;20021;-80
2020/12/03 02:59:55;;;;;;;36.55;14.10;;;;;;;1.66;73.90;99298.06;3837651;22;19916;-80
2020/12/03 03:01:26;;;;;;;28.13;13.85;;;;;;;1.71;73.48;99295.09;3840328;23;20031;-80
2020/12/03 03:02:57;;;;;;;;;;;;;;;1.63;73.56;99295.63;3837325;22;20025;-79
2020/12/03 03:04:28;;;;;;;31.20;15.60;;;;;;;1.67;73.37;99286.56;3839495;23;19983;-79
2020/12/03 03:06:01;;;;;;;37.45;15.20;;;;;;;1.67;73.48;99291.84;3837363;22;20033;-80
2020/12/03 03:07:32;;;;;;;35.80;17.17;;;;;;;1.65;73.69;99290.28;3840097;23;20021;-80
2020/12/03 03:09:06;;;;;;;37.33;17.98;;;;;;;1.59;73.85;99295.94;3836176;22;20028;-80
2020/12/03 03:10:37;;;;;;;32.72;17.65;;;;;;;1.55;74.27;99300.59;3836745;22;20031;-80
2020/12/03 03:12:08;;;;;;;34.42;16.80;;;;;;;1.61;74.13;99289.63;3839675;23;20028;-80
2020/12/03 03:13:40;;;;;;;31.70;17.00;;;;;;;1.59;74.09;99282.78;3834283;22;20028;-80
2020/12/03 03:15:11;;;;;;;28.73;15.02;;;;;;;1.58;74.16;99288.97;3839728;23;20029;-79
2020/12/03 03:16:42;;;;;;;36.65;17.77;;;;;;;1.49;74.24;99285.22;3836717;22;20028;-80
2020/12/03 03:18:25;;;;;;;44.75;20.95;;;;;;;1.46;74.50;99290.69;3841299;23;20453;-80
2020/12/03 03:20:01;;;;;;;32.88;15.90;;;;;;;1.54;74.37;99288.34;3835508;22;20017;-80
2020/12/03 03:21:33;;;;;;;31.65;15.35;;;;;;;1.57;74.42;99293.44;3839162;23;20390;-80
2020/12/03 03:23:04;;;;;;;35.50;15.40;;;;;;;1.56;74.47;99289.09;3836946;22;20093;-80
2020/12/03 03:24:36;;;;;;;33.92;16.75;;;;;;;1.61;74.21;99289.63;3839143;23;20021;-80
2020/12/03 03:26:06;;;;;;;32.67;16.73;;;;;;;1.57;74.19;99288.16;3837633;22;20040;-79
2020/12/03 03:27:38;;;;;;;;;;;;;;;1.47;74.53;99287.09;3840145;23;20021;-81
2020/12/03 03:29:10;;;;;;;37.38;15.13;;;;;;;1.58;74.27;99283.72;3836407;22;19927;-79
2020/12/03 03:30:41;;;;;;;37.28;17.77;;;;;;;1.52;74.28;99290.25;3838971;23;20021;-80
2020/12/03 03:32:12;;;;;;;37.28;17.63;;;;;;;1.52;74.32;99284.97;3838478;22;20021;-80
2020/12/03 03:33:44;;;;;;;28.50;14.30;;;;;;;1.58;74.13;99284.56;3849038;23;20025;-80
2020/12/03 03:35:17;;;;;;;31.50;14.90;;;;;;;1.62;73.92;99280.75;3847232;22;20016;-80
2020/12/03 03:36:49;;;;;;;30.55;15.05;;;;;;;1.63;73.94;99276.34;3850539;23;20081;-80
2020/12/03 03:38:26;;;;;;;35.60;18.02;;;;;;;1.60;74.15;99276.56;3844858;22;20116;-80
2020/12/03 03:40:05;;;;;;;30.40;13.57;;;;;;;1.60;73.76;99281.81;3839846;23;20365;-80
2020/12/03 03:41:37;;;;;;;31.55;14.70;;;;;;;1.63;73.80;99277.19;3836598;22;20036;-80
2020/12/03 03:43:07;;;;;;;32.45;15.57;;;;;;;1.66;73.66;99279.63;3839426;23;20049;-80
2020/12/03 03:44:38;;;;;;;;;;;;;;;1.52;73.85;99287.63;3837740;22;20039;-80
2020/12/03 03:46:09;;;;;;;40.70;18.27;;;;;;;1.59;73.53;99278.38;3839222;23;20121;-80
2020/12/03 03:47:41;;;;;;;34.83;16.58;;;;;;;1.60;73.74;99282.69;3836958;23;20103;-80
2020/12/03 03:49:14;;;;;;;32.63;16.50;;;;;;;1.58;73.72;99271.41;3838138;23;20052;-80
2020/12/03 03:50:45;;;;;;;37.58;17.75;;;;;;;1.63;73.63;99277.19;3835543;22;20497;-80
2020/12/03 03:52:18;;;;;;;;;;;;;;;1.55;73.85;99268.97;3839801;23;20041;-79
2020/12/03 03:53:49;;;;;;;32.45;16.02;;;;;;;1.59;73.71;99265.19;3835632;22;20344;-80
2020/12/03 03:55:21;;;;;;;37.08;16.17;;;;;;;1.58;73.57;99260.00;3838861;23;20028;-79
2020/12/03 03:56:52;;;;;;;33.33;15.20;;;;;;;1.63;73.39;99266.63;3836535;22;20017;-79
2020/12/03 03:58:23;;;;;;;39.00;18.17;;;;;;;1.62;73.24;99262.31;3838138;23;20073;-80
2020/12/03 03:59:54;;;;;;;;;;;;;;;1.45;73.95;99262.66;3836851;22;20098;-80
2020/12/03 04:01:25;;;;;;;37.65;17.45;;;;;;;1.53;73.66;99262.97;3839141;23;19916;-80
2020/12/03 04:02:57;;;;;;;35.55;17.48;;;;;;;1.60;73.40;99266.88;3835988;22;20021;-81
2020/12/03 04:04:28;;;;;;;31.98;13.73;;;;;;;1.61;73.51;99263.25;3838735;23;20330;-80
2020/12/03 04:05:59;;;;;;;;;;;;;;;1.52;73.68;99261.28;3837372;22;20025;-80
2020/12/03 04:07:30;;;;;;;33.10;16.50;;;;;;;1.58;73.55;99258.22;3838724;23;20291;-80
2020/12/03 04:09:04;;;;;;;30.13;16.70;;;;;;;1.59;73.54;99254.66;3835250;22;20299;-80
2020/12/03 04:10:35;;;;;;;33.72;16.05;;;;;;;1.66;73.41;99250.63;3838302;23;20017;-80
2020/12/03 04:12:07;;;;;;;33.05;17.38;;;;;;;1.62;73.35;99250.94;3836823;23;20028;-80
2020/12/03 04:13:38;;;;;;;39.63;18.83;;;;;;;1.59;73.60;99249.38;3835782;22;20075;-79
2020/12/03 04:15:09;;;;;;;33.58;15.07;;;;;;;1.68;73.38;99254.00;3839118;23;20358;-80
2020/12/03 04:16:41;;;;;;;34.97;15.38;;;;;;;1.67;73.34;99254.94;3836182;22;20068;-79
2020/12/03 04:18:12;;;;;;;31.65;16.17;;;;;;;1.67;73.27;99241.78;3837810;23;20017;-80
2020/12/03 04:19:43;;;;;;;34.40;16.17;;;;;;;1.70;73.38;99252.06;3836229;22;20349;-81
2020/12/03 04:21:16;;;;;;;26.63;12.98;;;;;;;1.73;73.38;99251.03;3838936;23;20031;-80
2020/12/03 04:22:48;;;;;;;32.42;15.13;;;;;;;1.76;73.28;99245.53;3836040;22;20426;-80
2020/12/03 04:24:20;;;;;;;31.27;14.90;;;;;;;1.78;73.40;99248.09;3838252;23;20107;-80
2020/12/03 04:25:51;;;;;;;40.15;17.92;;;;;;;1.77;73.41;99236.69;3836096;22;20035;-79
2020/12/03 04:27:22;;;;;;;38.53;17.88;;;;;;;1.81;73.35;99238.16;3838842;23;20028;-79
2020/12/03 04:28:53;;;;;;;;;;;;;;;1.75;73.47;99240.38;3836534;22;20025;-80
2020/12/03 04:30:24;;;;;;;25.55;12.32;;;;;;;1.83;73.29;99243.31;3838589;23;19923;-80
2020/12/03 04:31:55;;;;;;;;;;;;;;;1.69;73.16;99236.38;3837267;22;20025;-80
2020/12/03 04:33:27;;;;;;;39.80;17.60;;;;;;;1.70;73.46;99243.34;3838790;23;19916;-81
2020/12/03 04:34:59;;;;;;;39.05;18.15;;;;;;;1.65;73.53;99243.66;3837271;22;20037;-80
2020/12/03 04:36:32;;;;;;;41.53;18.63;;;;;;;1.58;73.69;99242.41;3838448;23;20021;-80
2020/12/03 04:38:04;;;;;;;36.65;18.65;;;;;;;1.57;73.88;99240.72;3837168;22;20024;-81
2020/12/03 04:39:38;;;;;;;32.97;15.90;;;;;;;1.65;73.88;99235.75;3839547;23;20031;-81
2020/12/03 04:41:09;;;;;;;37.08;17.05;;;;;;;1.66;73.72;99240.09;3836405;22;20073;-81
2020/12/03 04:42:41;;;;;;;33.17;16.27;;;;;;;1.74;73.71;99241.34;3839180;23;20453;-81
2020/12/03 04:44:19;;;;;;;44.30;19.98;;;;;;;1.64;73.55;99243.78;3837209;22;20048;-80
2020/12/03 04:45:55;;;;;;;39.85;19.75;;;;;;;1.65;73.83;99238.41;3839584;23;20331;-80
2020/12/03 04:47:47;;;;;;;32.72;15.32;;;;;;;1.62;73.82;99233.34;3836736;22;20418;-79
2020/12/03 04:49:29;;;;;;;39.55;20.20;;;;;;;1.63;73.75;99231.56;3838693;23;20021;-79
2020/12/03 04:51:13;;;;;;;38.70;18.85;;;;;;;1.61;73.88;99236.91;3836126;22;20056;-79
2020/12/03 04:53:00;;;;;;;43.55;20.85;;;;;;;1.53;74.05;99237.47;3836670;22;20028;-79
2020/12/03 04:54:38;;;;;;;42.72;21.05;;;;;;;1.50;74.15;99234.22;3838378;23;20037;-79
2020/12/03 04:56:13;;;;;;;41.13;19.58;;;;;;;1.47;74.58;99239.69;3837450;22;20021;-80
2020/12/03 04:57:50;;;;;;;41.58;19.98;;;;;;;1.47;74.39;99232.59;3838936;23;20446;-80
2020/12/03 04:59:33;;;;;;;43.40;20.40;;;;;;;1.49;74.63;99240.44;3835599;22;20021;-80
2020/12/03 05:01:16;;;;;;;35.28;17.00;;;;;;;1.56;74.38;99231.13;3838115;23;20021;-79
2020/12/03 05:03:09;;;;;;;33.67;16.75;;;;;;;1.62;74.46;99224.59;3839723;22;20025;-79
2020/12/03 05:04:48;;;;;;;41.33;19.50;;;;;;;1.56;74.20;99229.34;3839453;22;20028;-80
2020/12/03 05:06:33;;;;;;;33.42;16.00;;;;;;;1.63;74.28;99224.47;3838783;23;20017;-79
2020/12/03 05:08:09;;;;;;;36.67;18.20;;;;;;;1.67;74.58;99225.97;3836158;22;20024;-80
2020/12/03 05:09:48;;;;;;;29.40;14.45;;;;;;;1.77;74.19;99220.03;3838397;23;20044;-80
2020/12/03 05:11:25;;;;;;;31.85;14.45;;;;;;;1.84;73.87;99221.28;3835974;22;20035;-79
2020/12/03 05:12:56;;;;;;;33.40;16.15;;;;;;;1.85;73.90;99217.69;3837482;23;20119;-80
2020/12/03 05:14:36;;;;;;;34.22;16.35;;;;;;;1.89;73.71;99218.31;3836098;22;20032;-80
2020/12/03 05:16:16;;;;;;;34.92;18.08;;;;;;;1.84;73.96;99218.66;3837345;23;20021;-79
2020/12/03 05:18:08;;;;;;;41.55;19.45;;;;;;;1.77;73.96;99220.88;3835860;22;20132;-80
2020/12/03 05:19:41;;;;;;;32.17;16.33;;;;;;;1.77;74.19;99212.13;3835081;22;20095;-81
2020/12/03 05:21:17;;;;;;;35.15;17.75;;;;;;;1.80;74.11;99207.50;3837983;23;20036;-80
2020/12/03 05:22:55;;;;;;;36.42;16.42;;;;;;;1.84;74.01;99214.22;3835361;22;20029;-80
2020/12/03 05:24:27;;;;;;;35.10;17.15;;;;;;;1.80;74.19;99199.59;3838175;23;20106;-79
2020/12/03 05:26:00;;;;;;;34.63;16.73;;;;;;;1.87;74.06;99198.19;3836675;22;20044;-79
2020/12/03 05:27:33;;;;;;;33.10;17.25;;;;;;;1.89;73.81;99203.34;3837991;23;20021;-79
2020/12/03 05:29:06;;;;;;;37.00;17.90;;;;;;;1.86;73.87;99191.22;3836639;22;20040;-80
2020/12/03 05:30:42;;;;;;;32.88;15.35;;;;;;;1.90;73.64;99194.47;3839436;23;20361;-79
2020/12/03 05:32:15;;;;;;;34.45;14.80;;;;;;;1.92;73.53;99195.22;3836955;22;20140;-79
2020/12/03 05:33:47;;;;;;;28.88;14.13;;;;;;;1.91;73.78;99190.88;3839616;23;20032;-80
2020/12/03 05:35:19;;;;;;;27.00;13.10;;;;;;;1.97;73.66;99185.19;3836899;23;20056;-80
2020/12/03 05:37:00;;;;;;;28.88;12.95;;;;;;;1.96;73.65;99182.66;3840402;23;20079;-79
2020/12/03 05:38:31;;;;;;;29.40;14.15;;;;;;;1.98;73.53;99176.34;3836600;22;20048;-79
2020/12/03 05:40:04;;;;;;;;;;;;;;;1.95;73.35;99179.19;3838937;23;20032;-80
2020/12/03 05:41:41;;;;;;;32.88;16.02;;;;;;;2.00;73.39;99178.84;3836767;22;19916;-80
2020/12/03 05:43:14;;;;;;;33.35;14.63;;;;;;;2.02;73.66;99172.50;3839558;23;20512;-79
2020/12/03 05:44:51;;;;;;;32.42;14.55;;;;;;;2.11;73.10;99172.78;3837065;22;20021;-80
2020/12/03 05:46:23;;;;;;;32.67;13.88;;;;;;;2.17;73.08;99164.44;3840132;23;20021;-79
2020/12/03 05:47:57;;;;;;;27.35;13.82;;;;;;;2.20;73.14;99158.09;3837612;22;20060;-80
2020/12/03 05:49:29;;;;;;;31.80;14.82;;;;;;;2.22;73.02;99157.03;3838810;23;20081;-80
2020/12/03 05:51:16;;;;;;;32.38;15.55;;;;;;;2.16;72.68;99154.84;3838718;22;20029;-80
2020/12/03 05:52:58;;;;;;;31.85;14.82;;;;;;;2.11;72.65;99149.91;3840627;22;20084;-79
2020/12/03 05:54:30;;;;;;;31.08;15.15;;;;;;;2.13;73.07;99160.34;3845493;23;20021;-79
2020/12/03 05:56:12;;;;;;;26.63;13.55;;;;;;;2.12;72.66;99153.38;3840803;22;20048;-79
2020/12/03 05:57:45;;;;;;;31.10;13.07;;;;;;;2.16;72.80;99152.22;3842667;23;20028;-79
2020/12/03 05:59:21;;;;;;;32.38;15.40;;;;;;;2.13;72.54;99144.53;3838288;22;20462;-79
2020/12/03 06:01:07;;;;;;;27.10;13.18;;;;;;;2.12;72.64;99146.31;3843417;23;20028;-80
2020/12/03 06:02:49;;;;;;;29.40;15.15;;;;;;;2.17;72.50;99148.63;3840608;22;20021;-80
2020/12/03 06:04:31;;;;;;;29.67;13.70;;;;;;;2.15;72.45;99139.97;3842953;23;20025;-80
2020/12/03 06:06:39;;;;;;;30.88;14.98;;;;;;;2.07;72.48;99142.34;3839912;22;20032;-80
2020/12/03 06:08:31;;;;;;;25.55;12.48;;;;;;;2.07;72.73;99137.91;3837830;22;20021;-80
2020/12/03 06:10:22;;;;;;;36.42;16.88;;;;;;;2.09;72.76;99145.69;3842442;23;20025;-80
2020/12/03 06:12:12;;;;;;;26.10;13.15;;;;;;;2.08;72.56;99131.66;3840295;22;20480;-79
2020/12/03 06:14:18;;;;;;;29.02;12.57;;;;;;;2.10;72.55;99131.56;3840746;22;20073;-79
2020/12/03 06:15:56;;;;;;;27.92;13.60;;;;;;;2.12;72.39;99127.00;3842145;23;20021;-79
2020/12/03 06:17:40;;;;;;;26.65;13.73;;;;;;;2.11;72.27;99122.69;3838792;22;20032;-80
2020/12/03 06:19:29;;;;;;;29.45;14.80;;;;;;;2.15;72.10;99124.97;3842714;23;20024;-80
2020/12/03 06:21:33;;;;;;;30.05;14.18;;;;;;;2.17;72.15;99130.16;3839726;22;20123;-79
2020/12/03 06:23:23;;;;;;;29.40;13.00;;;;;;;2.17;71.97;99130.16;3839679;22;20020;-80
2020/12/03 06:25:21;;;;;;;24.33;11.77;;;;;;;2.20;71.86;99135.19;3844171;23;20021;-80
2020/12/03 06:27:19;;;;;;;30.17;13.50;;;;;;;2.17;72.16;99128.34;3840497;22;20021;-80
2020/12/03 06:29:23;;;;;;;30.15;14.73;;;;;;;2.10;72.30;99121.00;3838689;22;20025;-80
2020/12/03 06:31:00;;;;;;;34.70;17.25;;;;;;;2.09;72.77;99119.31;3824219;23;20028;-80
2020/12/03 06:32:57;;;;;;;32.75;15.55;;;;;;;2.13;72.35;99121.63;3839335;22;20446;-80
2020/12/03 06:34:36;;;;;;;30.85;14.60;;;;;;;2.08;72.44;99120.31;3843544;23;20013;-80
2020/12/03 06:36:21;;;;;;;30.38;15.18;;;;;;;2.10;72.46;99121.84;3838184;23;20527;-80
2020/12/03 06:38:01;;;;;;;29.95;15.18;;;;;;;2.11;72.58;99122.69;3840429;22;20389;-81
2020/12/03 06:39:49;;;;;;;30.70;14.07;;;;;;;2.14;72.38;99119.84;3841956;23;20052;-80
2020/12/03 06:41:46;;;;;;;36.08;17.42;;;;;;;2.14;72.54;99111.94;3843837;22;20366;-79
2020/12/03 06:43:27;;;;;;;36.58;17.60;;;;;;;2.15;72.29;99111.81;3842875;23;20103;-80
2020/12/03 06:45:10;;;;;;;27.08;12.85;;;;;;;2.23;72.24;99116.50;3840641;22;20028;-80
2020/12/03 06:47:16;;;;;;;27.88;14.00;;;;;;;2.26;71.67;99115.44;3837428;22;20371;-79
2020/12/03 06:49:04;;;;;;;23.30;10.85;;;;;;;2.30;71.56;99123.00;3842197;23;20013;-80
2020/12/03 06:51:11;;;;;;;28.27;12.95;;;;;;;2.30;71.60;99119.53;3841826;22;20021;-80
2020/12/03 06:53:12;;;;;;;30.83;12.02;;;;;;;2.32;71.51;99125.53;3844353;22;20029;-81
2020/12/03 06:55:01;;;;;;;22.08;10.75;;;;;;;2.37;71.37;99111.97;3842117;23;20072;-80
2020/12/03 06:57:08;;;;;;;20.20;10.45;;;;;;;2.38;71.16;99109.25;3840779;22;20022;-80
2020/12/03 06:59:01;;;;;;;28.55;11.70;;;;;;;2.40;71.19;99115.25;3837271;22;20071;-81
2020/12/03 07:01:02;;;;;;;31.58;14.60;;;;;;;2.31;71.31;99108.88;3843282;23;20014;-80
2020/12/03 07:03:14;;;;;;;32.63;12.85;;;;;;;2.32;71.50;99107.91;3841895;22;20021;-80
2020/12/03 07:05:04;;;;;;;;;;;;;;;2.31;71.48;99103.59;3833185;22;20020;-80
2020/12/03 07:07:08;;;;;;;25.48;13.15;;;;;;;2.39;71.15;99104.81;3780016;23;19917;-80
2020/12/03 07:09:09;;;;;;;24.25;11.52;;;;;;;2.45;70.77;99099.91;3837355;22;20106;-80
2020/12/03 07:11:27;;;;;;;28.70;14.48;;;;;;;2.32;70.81;99093.88;3837979;22;20028;-80
2020/12/03 07:13:53;;;;;;;29.83;13.80;;;;;;;2.27;70.91;99096.03;3839164;23;20025;-80
2020/12/03 07:15:48;;;;;;;32.08;14.68;;;;;;;2.33;70.79;99091.13;3838377;23;20089;-80
2020/12/03 07:17:53;;;;;;;34.72;15.88;;;;;;;2.37;70.74;99086.47;3836922;22;20107;-79
2020/12/03 07:19:55;;;;;;;25.80;12.13;;;;;;;2.42;70.57;99083.47;3799196;23;20033;-81
2020/12/03 07:21:53;;;;;;;27.80;12.30;;;;;;;2.47;70.70;99090.09;3844602;23;20021;-81
2020/12/03 07:23:35;;;;;;;23.02;10.80;;;;;;;2.45;70.53;99088.53;3840397;22;20092;-80
2020/12/03 07:25:09;;;;;;;27.88;11.75;;;;;;;2.44;70.75;99081.56;3839852;23;20373;-80
2020/12/03 07:27:25;;;;;;;24.27;11.82;;;;;;;2.45;70.49;99081.44;3838127;22;20457;-79
2020/12/03 07:29:00;;;;;;;25.08;12.82;;;;;;;2.51;70.73;99088.06;3825028;22;20029;-80
2020/12/03 07:30:38;;;;;;;27.63;13.98;;;;;;;2.55;70.21;99081.56;3842758;23;20032;-80
2020/12/03 07:32:24;;;;;;;27.58;14.82;;;;;;;2.50;70.10;99081.09;3838929;22;20040;-80
2020/12/03 07:34:11;;;;;;;26.88;12.52;;;;;;;2.48;70.22;99077.72;3842014;23;20021;-80
2020/12/03 07:35:50;;;;;;;27.92;13.18;;;;;;;2.45;70.47;99075.34;3838659;22;20028;-79
2020/12/03 07:37:32;;;;;;;30.88;12.98;;;;;;;2.48;70.48;99061.91;3842665;23;20347;-79
2020/12/03 07:39:32;;;;;;;30.88;15.48;;;;;;;2.41;69.99;99060.69;3841499;22;20021;-79
2020/12/03 07:41:16;;;;;;;29.38;13.70;;;;;;;2.48;70.20;99056.63;3846062;22;20017;-81